sensor_id;sensor_type;location;lat;lon;timestamp;P1;durP1;ratioP1;P2;durP2;ratioP2
44358;SDS011;30077;52.474;13.326;2022-12-18T00:04:23;38.60;;;13.70;;
44358;SDS011;30077;52.474;13.326;2022-12-18T00:09:24;64.82;;;20.38;;
44358;SDS011;30077;52.474;13.326;2022-12-18T00:14:24;74.13;;;22.33;;
44358;SDS011;30077;52.474;13.326;2022-12-18T00:19:25;94.32;;;33.10;;
44358;SDS011;30077;52.474;13.326;2022-12-18T00:24:25;67.38;;;22.83;;
44358;SDS011;30077;52.474;13.326;2022-12-18T00:29:26;64.32;;;21.27;;
44358;SDS011;30077;52.474;13.326;2022-12-18T00:34:26;61.63;;;21.95;;
44358;SDS011;30077;52.474;13.326;2022-12-18T00:39:26;73.22;;;22.15;;
44358;SDS011;30077;52.474;13.326;2022-12-18T00:44:27;62.83;;;21.33;;
44358;SDS011;30077;52.474;13.326;2022-12-18T00:49:28;63.40;;;22.83;;
44358;SDS011;30077;52.474;13.326;2022-12-18T00:54:29;73.72;;;21.90;;
44358;SDS011;30077;52.474;13.326;2022-12-18T00:59:29;66.85;;;21.80;;
44358;SDS011;30077;52.474;13.326;2022-12-18T01:04:33;66.93;;;21.42;;
44358;SDS011;30077;52.474;13.326;2022-12-18T01:09:34;77.75;;;23.85;;
44358;SDS011;30077;52.474;13.326;2022-12-18T01:14:34;69.82;;;23.42;;
44358;SDS011;30077;52.474;13.326;2022-12-18T01:19:34;69.18;;;23.20;;
44358;SDS011;30077;52.474;13.326;2022-12-18T01:24:35;75.90;;;24.13;;
44358;SDS011;30077;52.474;13.326;2022-12-18T01:29:36;69.68;;;23.58;;
44358;SDS011;30077;52.474;13.326;2022-12-18T01:34:37;68.35;;;22.92;;
44358;SDS011;30077;52.474;13.326;2022-12-18T01:39:37;71.20;;;21.88;;
44358;SDS011;30077;52.474;13.326;2022-12-18T01:44:50;62.05;;;21.20;;
44358;SDS011;30077;52.474;13.326;2022-12-18T01:55:10;66.28;;;22.27;;
44358;SDS011;30077;52.474;13.326;2022-12-18T02:00:16;69.65;;;22.00;;
44358;SDS011;30077;52.474;13.326;2022-12-18T02:11:15;65.73;;;20.80;;
44358;SDS011;30077;52.474;13.326;2022-12-18T02:21:40;57.67;;;19.15;;
44358;SDS011;30077;52.474;13.326;2022-12-18T02:26:55;58.15;;;20.92;;
44358;SDS011;30077;52.474;13.326;2022-12-18T02:32:02;64.00;;;21.67;;
44358;SDS011;30077;52.474;13.326;2022-12-18T02:37:09;60.08;;;19.77;;
44358;SDS011;30077;52.474;13.326;2022-12-18T02:42:13;72.35;;;23.02;;
44358;SDS011;30077;52.474;13.326;2022-12-18T02:47:17;68.88;;;23.10;;
44358;SDS011;30077;52.474;13.326;2022-12-18T02:52:34;66.43;;;21.75;;
44358;SDS011;30077;52.474;13.326;2022-12-18T03:03:12;72.97;;;22.90;;
44358;SDS011;30077;52.474;13.326;2022-12-18T03:08:22;68.47;;;22.13;;
44358;SDS011;30077;52.474;13.326;2022-12-18T03:13:34;78.97;;;22.85;;
44358;SDS011;30077;52.474;13.326;2022-12-18T03:18:42;65.00;;;22.20;;
44358;SDS011;30077;52.474;13.326;2022-12-18T03:23:48;74.35;;;21.92;;
44358;SDS011;30077;52.474;13.326;2022-12-18T03:28:53;71.28;;;23.10;;
44358;SDS011;30077;52.474;13.326;2022-12-18T03:33:58;72.82;;;24.42;;
44358;SDS011;30077;52.474;13.326;2022-12-18T03:39:00;73.03;;;24.60;;
44358;SDS011;30077;52.474;13.326;2022-12-18T03:44:11;64.20;;;20.90;;
44358;SDS011;30077;52.474;13.326;2022-12-18T03:49:22;70.03;;;22.77;;
44358;SDS011;30077;52.474;13.326;2022-12-18T03:54:28;73.60;;;22.70;;
44358;SDS011;30077;52.474;13.326;2022-12-18T03:59:31;75.90;;;24.45;;
44358;SDS011;30077;52.474;13.326;2022-12-18T04:04:34;78.63;;;26.02;;
44358;SDS011;30077;52.474;13.326;2022-12-18T04:09:37;82.90;;;25.23;;
44358;SDS011;30077;52.474;13.326;2022-12-18T04:14:39;84.65;;;26.73;;
44358;SDS011;30077;52.474;13.326;2022-12-18T04:19:39;85.57;;;26.13;;
44358;SDS011;30077;52.474;13.326;2022-12-18T04:24:40;96.13;;;29.70;;
44358;SDS011;30077;52.474;13.326;2022-12-18T04:29:40;94.80;;;28.38;;
44358;SDS011;30077;52.474;13.326;2022-12-18T04:34:40;85.40;;;27.10;;
44358;SDS011;30077;52.474;13.326;2022-12-18T04:39:41;91.88;;;27.95;;
44358;SDS011;30077;52.474;13.326;2022-12-18T04:44:41;98.90;;;32.08;;
44358;SDS011;30077;52.474;13.326;2022-12-18T04:49:41;104.07;;;30.67;;
44358;SDS011;30077;52.474;13.326;2022-12-18T04:54:41;108.00;;;32.33;;
44358;SDS011;30077;52.474;13.326;2022-12-18T04:59:42;112.10;;;34.22;;
44358;SDS011;30077;52.474;13.326;2022-12-18T05:04:43;127.07;;;34.58;;
44358;SDS011;30077;52.474;13.326;2022-12-18T05:09:45;114.27;;;33.30;;
44358;SDS011;30077;52.474;13.326;2022-12-18T05:14:45;120.57;;;34.10;;
44358;SDS011;30077;52.474;13.326;2022-12-18T05:19:45;133.17;;;36.17;;
44358;SDS011;30077;52.474;13.326;2022-12-18T05:24:45;114.87;;;34.83;;
44358;SDS011;30077;52.474;13.326;2022-12-18T05:29:46;133.30;;;39.65;;
44358;SDS011;30077;52.474;13.326;2022-12-18T05:34:46;131.00;;;39.80;;
44358;SDS011;30077;52.474;13.326;2022-12-18T05:39:46;115.00;;;35.15;;
44358;SDS011;30077;52.474;13.326;2022-12-18T05:44:47;110.25;;;30.63;;
44358;SDS011;30077;52.474;13.326;2022-12-18T05:49:47;91.28;;;30.70;;
44358;SDS011;30077;52.474;13.326;2022-12-18T05:54:47;97.70;;;31.73;;
44358;SDS011;30077;52.474;13.326;2022-12-18T05:59:47;104.53;;;31.63;;
44358;SDS011;30077;52.474;13.326;2022-12-18T06:04:48;101.10;;;32.38;;
44358;SDS011;30077;52.474;13.326;2022-12-18T06:09:48;93.78;;;29.05;;
44358;SDS011;30077;52.474;13.326;2022-12-18T06:14:48;98.60;;;28.77;;
44358;SDS011;30077;52.474;13.326;2022-12-18T06:19:49;99.00;;;29.98;;
44358;SDS011;30077;52.474;13.326;2022-12-18T06:24:50;96.55;;;32.10;;
44358;SDS011;30077;52.474;13.326;2022-12-18T06:29:51;117.20;;;34.42;;
44358;SDS011;30077;52.474;13.326;2022-12-18T06:34:51;114.32;;;34.22;;
44358;SDS011;30077;52.474;13.326;2022-12-18T06:39:54;117.85;;;34.65;;
44358;SDS011;30077;52.474;13.326;2022-12-18T06:44:56;96.38;;;30.35;;
44358;SDS011;30077;52.474;13.326;2022-12-18T06:49:56;97.07;;;30.23;;
44358;SDS011;30077;52.474;13.326;2022-12-18T06:54:56;98.22;;;28.63;;
44358;SDS011;30077;52.474;13.326;2022-12-18T06:59:57;108.93;;;32.90;;
44358;SDS011;30077;52.474;13.326;2022-12-18T07:04:57;112.20;;;35.38;;
44358;SDS011;30077;52.474;13.326;2022-12-18T07:09:58;86.03;;;24.25;;
44358;SDS011;30077;52.474;13.326;2022-12-18T07:14:59;110.15;;;34.38;;
44358;SDS011;30077;52.474;13.326;2022-12-18T07:20:00;108.05;;;31.77;;
44358;SDS011;30077;52.474;13.326;2022-12-18T07:25:00;107.53;;;34.22;;
44358;SDS011;30077;52.474;13.326;2022-12-18T07:30:00;101.20;;;32.40;;
44358;SDS011;30077;52.474;13.326;2022-12-18T07:35:01;97.53;;;29.70;;
44358;SDS011;30077;52.474;13.326;2022-12-18T07:40:01;91.55;;;29.08;;
44358;SDS011;30077;52.474;13.326;2022-12-18T07:45:01;82.83;;;27.37;;
44358;SDS011;30077;52.474;13.326;2022-12-18T07:50:03;76.63;;;25.47;;
44358;SDS011;30077;52.474;13.326;2022-12-18T07:55:04;75.25;;;26.98;;
44358;SDS011;30077;52.474;13.326;2022-12-18T08:00:05;76.35;;;25.17;;
44358;SDS011;30077;52.474;13.326;2022-12-18T08:05:06;71.57;;;24.80;;
44358;SDS011;30077;52.474;13.326;2022-12-18T08:10:06;81.22;;;26.73;;
44358;SDS011;30077;52.474;13.326;2022-12-18T08:15:07;75.23;;;25.40;;
44358;SDS011;30077;52.474;13.326;2022-12-18T08:20:08;83.82;;;27.08;;
44358;SDS011;30077;52.474;13.326;2022-12-18T08:25:09;83.63;;;25.65;;
44358;SDS011;30077;52.474;13.326;2022-12-18T08:30:10;75.80;;;26.02;;
44358;SDS011;30077;52.474;13.326;2022-12-18T08:35:10;83.78;;;25.85;;
44358;SDS011;30077;52.474;13.326;2022-12-18T08:40:11;83.10;;;26.13;;
44358;SDS011;30077;52.474;13.326;2022-12-18T08:45:12;78.80;;;24.90;;
44358;SDS011;30077;52.474;13.326;2022-12-18T08:50:13;81.28;;;25.80;;
44358;SDS011;30077;52.474;13.326;2022-12-18T08:55:13;76.85;;;24.63;;
44358;SDS011;30077;52.474;13.326;2022-12-18T09:00:13;75.38;;;24.90;;
44358;SDS011;30077;52.474;13.326;2022-12-18T09:05:14;86.40;;;31.60;;
44358;SDS011;30077;52.474;13.326;2022-12-18T09:10:14;74.25;;;28.55;;
44358;SDS011;30077;52.474;13.326;2022-12-18T09:15:14;91.40;;;38.22;;
44358;SDS011;30077;52.474;13.326;2022-12-18T09:20:15;109.30;;;39.55;;
44358;SDS011;30077;52.474;13.326;2022-12-18T09:25:16;71.47;;;25.57;;
44358;SDS011;30077;52.474;13.326;2022-12-18T09:30:16;81.45;;;28.25;;
44358;SDS011;30077;52.474;13.326;2022-12-18T09:35:16;110.55;;;35.75;;
44358;SDS011;30077;52.474;13.326;2022-12-18T09:40:18;76.53;;;25.27;;
44358;SDS011;30077;52.474;13.326;2022-12-18T09:45:20;70.03;;;24.83;;
44358;SDS011;30077;52.474;13.326;2022-12-18T09:50:26;74.28;;;25.55;;
44358;SDS011;30077;52.474;13.326;2022-12-18T09:55:36;66.50;;;23.63;;
44358;SDS011;30077;52.474;13.326;2022-12-18T10:00:41;67.65;;;24.23;;
44358;SDS011;30077;52.474;13.326;2022-12-18T10:10:49;69.68;;;23.23;;
44358;SDS011;30077;52.474;13.326;2022-12-18T10:16:08;59.38;;;22.35;;
44358;SDS011;30077;52.474;13.326;2022-12-18T10:21:19;69.10;;;23.33;;
44358;SDS011;30077;52.474;13.326;2022-12-18T10:26:25;61.08;;;22.20;;
44358;SDS011;30077;52.474;13.326;2022-12-18T10:31:25;62.20;;;22.92;;
44358;SDS011;30077;52.474;13.326;2022-12-18T10:36:25;64.30;;;22.15;;
44358;SDS011;30077;52.474;13.326;2022-12-18T10:41:26;65.18;;;23.20;;
44358;SDS011;30077;52.474;13.326;2022-12-18T10:46:27;70.72;;;25.15;;
44358;SDS011;30077;52.474;13.326;2022-12-18T10:51:28;67.85;;;25.13;;
44358;SDS011;30077;52.474;13.326;2022-12-18T10:56:31;71.85;;;26.95;;
44358;SDS011;30077;52.474;13.326;2022-12-18T11:01:48;70.72;;;24.17;;
44358;SDS011;30077;52.474;13.326;2022-12-18T11:07:04;80.68;;;27.10;;
44358;SDS011;30077;52.474;13.326;2022-12-18T11:12:18;66.72;;;23.58;;
44358;SDS011;30077;52.474;13.326;2022-12-18T11:17:25;66.18;;;24.02;;
44358;SDS011;30077;52.474;13.326;2022-12-18T11:22:35;66.55;;;24.80;;
44358;SDS011;30077;52.474;13.326;2022-12-18T11:32:38;80.00;;;25.02;;
44358;SDS011;30077;52.474;13.326;2022-12-18T11:37:43;68.47;;;26.00;;
44358;SDS011;30077;52.474;13.326;2022-12-18T11:42:54;75.80;;;27.58;;
44358;SDS011;30077;52.474;13.326;2022-12-18T11:48:09;65.90;;;25.63;;
44358;SDS011;30077;52.474;13.326;2022-12-18T11:53:17;83.38;;;29.33;;
44358;SDS011;30077;52.474;13.326;2022-12-18T12:03:39;76.80;;;24.30;;
44358;SDS011;30077;52.474;13.326;2022-12-18T12:24:27;63.97;;;23.42;;
44358;SDS011;30077;52.474;13.326;2022-12-18T12:41:13;62.92;;;22.48;;
44358;SDS011;30077;52.474;13.326;2022-12-18T12:46:38;60.33;;;22.30;;
44358;SDS011;30077;52.474;13.326;2022-12-18T12:51:43;106.47;;;43.42;;
44358;SDS011;30077;52.474;13.326;2022-12-18T12:57:08;80.63;;;32.25;;
44358;SDS011;30077;52.474;13.326;2022-12-18T13:07:46;66.10;;;22.83;;
44358;SDS011;30077;52.474;13.326;2022-12-18T13:12:58;62.67;;;25.13;;
44358;SDS011;30077;52.474;13.326;2022-12-18T13:33:46;65.93;;;26.20;;
44358;SDS011;30077;52.474;13.326;2022-12-18T13:38:47;62.58;;;25.83;;
44358;SDS011;30077;52.474;13.326;2022-12-18T13:44:38;62.20;;;23.38;;
44358;SDS011;30077;52.474;13.326;2022-12-18T13:49:41;58.90;;;25.17;;
44358;SDS011;30077;52.474;13.326;2022-12-18T13:54:44;63.22;;;25.40;;
44358;SDS011;30077;52.474;13.326;2022-12-18T13:59:58;69.78;;;27.48;;
44358;SDS011;30077;52.474;13.326;2022-12-18T14:05:23;71.53;;;28.77;;
44358;SDS011;30077;52.474;13.326;2022-12-18T14:10:26;62.08;;;25.48;;
44358;SDS011;30077;52.474;13.326;2022-12-18T14:15:40;72.30;;;28.70;;
44358;SDS011;30077;52.474;13.326;2022-12-18T14:20:43;77.68;;;29.42;;
44358;SDS011;30077;52.474;13.326;2022-12-18T14:25:47;78.93;;;29.00;;
44358;SDS011;30077;52.474;13.326;2022-12-18T14:30:47;88.13;;;32.70;;
44358;SDS011;30077;52.474;13.326;2022-12-18T14:35:57;93.40;;;34.22;;
44358;SDS011;30077;52.474;13.326;2022-12-18T14:41:01;94.83;;;34.37;;
44358;SDS011;30077;52.474;13.326;2022-12-18T14:46:06;86.82;;;32.47;;
44358;SDS011;30077;52.474;13.326;2022-12-18T14:51:48;88.53;;;32.95;;
44358;SDS011;30077;52.474;13.326;2022-12-18T15:07:17;66.95;;;28.33;;
44358;SDS011;30077;52.474;13.326;2022-12-18T15:12:26;60.95;;;25.10;;
44358;SDS011;30077;52.474;13.326;2022-12-18T15:17:34;69.28;;;28.63;;
44358;SDS011;30077;52.474;13.326;2022-12-18T15:22:35;65.13;;;26.63;;
44358;SDS011;30077;52.474;13.326;2022-12-18T15:32:38;70.03;;;25.10;;
44358;SDS011;30077;52.474;13.326;2022-12-18T15:37:41;52.60;;;22.38;;
44358;SDS011;30077;52.474;13.326;2022-12-18T15:42:42;52.03;;;22.30;;
44358;SDS011;30077;52.474;13.326;2022-12-18T15:48:21;57.40;;;23.80;;
44358;SDS011;30077;52.474;13.326;2022-12-18T15:53:24;49.57;;;22.50;;
44358;SDS011;30077;52.474;13.326;2022-12-18T15:58:27;51.97;;;21.17;;
44358;SDS011;30077;52.474;13.326;2022-12-18T16:03:28;47.90;;;20.23;;
44358;SDS011;30077;52.474;13.326;2022-12-18T16:08:30;57.80;;;23.55;;
44358;SDS011;30077;52.474;13.326;2022-12-18T16:13:30;50.55;;;22.88;;
44358;SDS011;30077;52.474;13.326;2022-12-18T16:18:30;58.17;;;22.48;;
44358;SDS011;30077;52.474;13.326;2022-12-18T16:23:32;48.55;;;20.67;;
44358;SDS011;30077;52.474;13.326;2022-12-18T16:28:33;51.30;;;22.00;;
44358;SDS011;30077;52.474;13.326;2022-12-18T16:33:33;56.47;;;23.00;;
44358;SDS011;30077;52.474;13.326;2022-12-18T16:38:33;33.60;;;14.90;;
44358;SDS011;30077;52.474;13.326;2022-12-18T16:43:34;57.30;;;25.50;;
44358;SDS011;30077;52.474;13.326;2022-12-18T16:48:34;52.22;;;22.17;;
44358;SDS011;30077;52.474;13.326;2022-12-18T16:53:34;52.30;;;22.55;;
44358;SDS011;30077;52.474;13.326;2022-12-18T16:58:35;56.45;;;23.00;;
44358;SDS011;30077;52.474;13.326;2022-12-18T17:03:35;54.83;;;22.83;;
44358;SDS011;30077;52.474;13.326;2022-12-18T17:08:35;58.20;;;24.25;;
44358;SDS011;30077;52.474;13.326;2022-12-18T17:13:35;55.03;;;23.95;;
44358;SDS011;30077;52.474;13.326;2022-12-18T17:18:36;55.38;;;24.25;;
44358;SDS011;30077;52.474;13.326;2022-12-18T17:23:36;66.05;;;24.52;;
44358;SDS011;30077;52.474;13.326;2022-12-18T17:28:37;59.95;;;26.48;;
44358;SDS011;30077;52.474;13.326;2022-12-18T17:38:42;64.72;;;26.27;;
44358;SDS011;30077;52.474;13.326;2022-12-18T17:43:58;57.47;;;23.95;;
44358;SDS011;30077;52.474;13.326;2022-12-18T17:49:00;62.17;;;25.08;;
44358;SDS011;30077;52.474;13.326;2022-12-18T17:54:01;63.42;;;26.95;;
44358;SDS011;30077;52.474;13.326;2022-12-18T17:59:03;62.80;;;25.42;;
44358;SDS011;30077;52.474;13.326;2022-12-18T18:04:03;72.30;;;27.52;;
44358;SDS011;30077;52.474;13.326;2022-12-18T18:09:04;74.18;;;28.98;;
44358;SDS011;30077;52.474;13.326;2022-12-18T18:14:06;75.37;;;29.73;;
44358;SDS011;30077;52.474;13.326;2022-12-18T18:19:12;77.78;;;30.42;;
44358;SDS011;30077;52.474;13.326;2022-12-18T18:24:16;73.15;;;27.63;;
44358;SDS011;30077;52.474;13.326;2022-12-18T18:29:20;64.30;;;27.35;;
44358;SDS011;30077;52.474;13.326;2022-12-18T18:34:24;66.35;;;27.40;;
44358;SDS011;30077;52.474;13.326;2022-12-18T18:39:28;70.45;;;27.77;;
44358;SDS011;30077;52.474;13.326;2022-12-18T18:49:29;79.95;;;29.42;;
44358;SDS011;30077;52.474;13.326;2022-12-18T18:54:30;75.03;;;29.75;;
44358;SDS011;30077;52.474;13.326;2022-12-18T18:59:30;77.25;;;30.88;;
44358;SDS011;30077;52.474;13.326;2022-12-18T19:04:33;71.07;;;29.20;;
44358;SDS011;30077;52.474;13.326;2022-12-18T19:09:35;69.00;;;27.52;;
44358;SDS011;30077;52.474;13.326;2022-12-18T19:14:35;59.40;;;22.17;;
44358;SDS011;30077;52.474;13.326;2022-12-18T19:19:37;80.22;;;28.33;;
44358;SDS011;30077;52.474;13.326;2022-12-18T19:24:37;81.05;;;29.63;;
44358;SDS011;30077;52.474;13.326;2022-12-18T19:29:38;69.63;;;28.50;;
44358;SDS011;30077;52.474;13.326;2022-12-18T19:34:38;80.97;;;30.58;;
44358;SDS011;30077;52.474;13.326;2022-12-18T19:39:38;76.63;;;27.97;;
44358;SDS011;30077;52.474;13.326;2022-12-18T19:44:40;76.07;;;29.27;;
44358;SDS011;30077;52.474;13.326;2022-12-18T19:49:40;85.50;;;30.52;;
44358;SDS011;30077;52.474;13.326;2022-12-18T19:54:41;81.43;;;30.53;;
44358;SDS011;30077;52.474;13.326;2022-12-18T19:59:41;79.17;;;30.70;;
44358;SDS011;30077;52.474;13.326;2022-12-18T20:04:41;86.60;;;30.52;;
44358;SDS011;30077;52.474;13.326;2022-12-18T20:09:42;80.40;;;30.27;;
44358;SDS011;30077;52.474;13.326;2022-12-18T20:14:42;75.45;;;29.17;;
44358;SDS011;30077;52.474;13.326;2022-12-18T20:19:42;78.20;;;29.98;;
44358;SDS011;30077;52.474;13.326;2022-12-18T20:24:44;84.60;;;30.50;;
44358;SDS011;30077;52.474;13.326;2022-12-18T20:29:45;83.75;;;30.08;;
44358;SDS011;30077;52.474;13.326;2022-12-18T20:34:47;78.90;;;28.25;;
44358;SDS011;30077;52.474;13.326;2022-12-18T20:39:47;83.63;;;30.85;;
44358;SDS011;30077;52.474;13.326;2022-12-18T20:44:47;77.65;;;28.88;;
44358;SDS011;30077;52.474;13.326;2022-12-18T20:49:48;92.30;;;34.00;;
44358;SDS011;30077;52.474;13.326;2022-12-18T20:54:48;70.97;;;28.45;;
44358;SDS011;30077;52.474;13.326;2022-12-18T20:59:49;78.63;;;28.10;;
44358;SDS011;30077;52.474;13.326;2022-12-18T21:04:49;78.57;;;32.33;;
44358;SDS011;30077;52.474;13.326;2022-12-18T21:09:49;76.65;;;30.42;;
44358;SDS011;30077;52.474;13.326;2022-12-18T21:14:49;50.93;;;20.37;;
44358;SDS011;30077;52.474;13.326;2022-12-18T21:19:50;85.07;;;36.33;;
44358;SDS011;30077;52.474;13.326;2022-12-18T21:24:50;86.03;;;31.75;;
44358;SDS011;30077;52.474;13.326;2022-12-18T21:29:51;104.37;;;36.53;;
44358;SDS011;30077;52.474;13.326;2022-12-18T21:34:51;81.22;;;30.70;;
44358;SDS011;30077;52.474;13.326;2022-12-18T21:39:51;72.38;;;26.88;;
44358;SDS011;30077;52.474;13.326;2022-12-18T21:44:51;67.20;;;26.20;;
44358;SDS011;30077;52.474;13.326;2022-12-18T21:49:52;70.78;;;27.67;;
44358;SDS011;30077;52.474;13.326;2022-12-18T21:54:52;77.95;;;28.38;;
44358;SDS011;30077;52.474;13.326;2022-12-18T21:59:53;71.68;;;27.02;;
44358;SDS011;30077;52.474;13.326;2022-12-18T22:04:54;76.00;;;30.00;;
44358;SDS011;30077;52.474;13.326;2022-12-18T22:09:55;80.15;;;32.92;;
44358;SDS011;30077;52.474;13.326;2022-12-18T22:14:56;69.10;;;27.67;;
44358;SDS011;30077;52.474;13.326;2022-12-18T22:19:56;80.93;;;27.60;;
44358;SDS011;30077;52.474;13.326;2022-12-18T22:24:57;71.45;;;25.50;;
44358;SDS011;30077;52.474;13.326;2022-12-18T22:29:57;67.80;;;26.13;;
44358;SDS011;30077;52.474;13.326;2022-12-18T22:35:03;64.20;;;25.77;;
44358;SDS011;30077;52.474;13.326;2022-12-18T22:40:04;76.97;;;27.97;;
44358;SDS011;30077;52.474;13.326;2022-12-18T22:50:08;65.20;;;25.30;;
44358;SDS011;30077;52.474;13.326;2022-12-18T22:55:10;62.15;;;23.25;;
44358;SDS011;30077;52.474;13.326;2022-12-18T23:00:11;67.25;;;24.35;;
44358;SDS011;30077;52.474;13.326;2022-12-18T23:05:12;89.30;;;30.97;;
44358;SDS011;30077;52.474;13.326;2022-12-18T23:10:12;69.97;;;24.30;;
44358;SDS011;30077;52.474;13.326;2022-12-18T23:15:12;71.95;;;24.80;;
44358;SDS011;30077;52.474;13.326;2022-12-18T23:20:12;66.72;;;25.23;;
44358;SDS011;30077;52.474;13.326;2022-12-18T23:25:13;63.08;;;24.05;;
44358;SDS011;30077;52.474;13.326;2022-12-18T23:30:13;61.50;;;23.10;;
44358;SDS011;30077;52.474;13.326;2022-12-18T23:35:14;72.63;;;24.07;;
44358;SDS011;30077;52.474;13.326;2022-12-18T23:40:15;61.67;;;23.98;;
44358;SDS011;30077;52.474;13.326;2022-12-18T23:45:16;56.97;;;21.65;;
44358;SDS011;30077;52.474;13.326;2022-12-18T23:50:16;65.17;;;23.03;;
44358;SDS011;30077;52.474;13.326;2022-12-18T23:55:17;58.65;;;23.77;;
